sensor_id;sensor_type;location;lat;lon;timestamp;temperature;humidity
72650;SHT31;61467;50.674;4.618;2023-12-14T00:00:13;9.75;85.03
72650;SHT31;61467;50.674;4.618;2023-12-14T00:02:40;9.73;84.77
72650;SHT31;61467;50.674;4.618;2023-12-14T00:05:07;9.54;84.94
72650;SHT31;61467;50.674;4.618;2023-12-14T00:07:35;9.41;85.42
72650;SHT31;61467;50.674;4.618;2023-12-14T00:10:03;9.58;85.26
72650;SHT31;61467;50.674;4.618;2023-12-14T00:12:30;9.79;84.72
72650;SHT31;61467;50.674;4.618;2023-12-14T00:14:57;9.85;84.42
72650;SHT31;61467;50.674;4.618;2023-12-14T00:17:24;9.89;84.42
72650;SHT31;61467;50.674;4.618;2023-12-14T00:19:50;9.78;84.40
72650;SHT31;61467;50.674;4.618;2023-12-14T00:22:17;9.81;84.44
72650;SHT31;61467;50.674;4.618;2023-12-14T00:24:46;9.75;84.79
72650;SHT31;61467;50.674;4.618;2023-12-14T00:27:13;9.92;84.26
72650;SHT31;61467;50.674;4.618;2023-12-14T00:29:40;9.92;84.13
72650;SHT31;61467;50.674;4.618;2023-12-14T00:32:06;9.96;84.01
72650;SHT31;61467;50.674;4.618;2023-12-14T00:34:33;9.93;84.18
72650;SHT31;61467;50.674;4.618;2023-12-14T00:37:00;9.99;83.85
72650;SHT31;61467;50.674;4.618;2023-12-14T00:39:27;9.96;84.19
72650;SHT31;61467;50.674;4.618;2023-12-14T00:41:55;9.92;84.16
72650;SHT31;61467;50.674;4.618;2023-12-14T00:44:22;9.95;84.23
72650;SHT31;61467;50.674;4.618;2023-12-14T00:46:49;10.04;84.07
72650;SHT31;61467;50.674;4.618;2023-12-14T00:49:16;10.00;84.14
72650;SHT31;61467;50.674;4.618;2023-12-14T00:51:45;9.69;84.48
72650;SHT31;61467;50.674;4.618;2023-12-14T00:54:12;9.85;84.80
72650;SHT31;61467;50.674;4.618;2023-12-14T00:56:39;9.90;84.66
72650;SHT31;61467;50.674;4.618;2023-12-14T00:59:08;9.85;84.60
72650;SHT31;61467;50.674;4.618;2023-12-14T01:01:34;9.72;84.59
72650;SHT31;61467;50.674;4.618;2023-12-14T01:04:01;9.78;84.78
72650;SHT31;61467;50.674;4.618;2023-12-14T01:06:30;9.81;84.89
72650;SHT31;61467;50.674;4.618;2023-12-14T01:08:56;9.85;84.91
72650;SHT31;61467;50.674;4.618;2023-12-14T01:11:23;9.83;84.90
72650;SHT31;61467;50.674;4.618;2023-12-14T01:13:50;9.87;84.77
72650;SHT31;61467;50.674;4.618;2023-12-14T01:16:18;9.79;84.79
72650;SHT31;61467;50.674;4.618;2023-12-14T01:18:45;9.87;84.83
72650;SHT31;61467;50.674;4.618;2023-12-14T01:21:12;9.95;84.49
72650;SHT31;61467;50.674;4.618;2023-12-14T01:23:39;9.93;84.97
72650;SHT31;61467;50.674;4.618;2023-12-14T01:26:06;9.69;85.21
72650;SHT31;61467;50.674;4.618;2023-12-14T01:28:33;9.92;84.66
72650;SHT31;61467;50.674;4.618;2023-12-14T01:31:00;9.86;84.67
72650;SHT31;61467;50.674;4.618;2023-12-14T01:33:28;9.99;84.58
72650;SHT31;61467;50.674;4.618;2023-12-14T01:35:55;9.78;85.03
72650;SHT31;61467;50.674;4.618;2023-12-14T01:38:22;9.83;85.11
72650;SHT31;61467;50.674;4.618;2023-12-14T01:40:48;9.71;84.96
72650;SHT31;61467;50.674;4.618;2023-12-14T01:43:15;9.71;85.14
72650;SHT31;61467;50.674;4.618;2023-12-14T01:45:42;9.68;85.30
72650;SHT31;61467;50.674;4.618;2023-12-14T01:48:09;9.66;85.55
72650;SHT31;61467;50.674;4.618;2023-12-14T01:50:37;9.76;85.14
72650;SHT31;61467;50.674;4.618;2023-12-14T01:53:04;9.76;85.06
72650;SHT31;61467;50.674;4.618;2023-12-14T01:55:31;9.78;84.84
72650;SHT31;61467;50.674;4.618;2023-12-14T01:57:58;9.44;85.57
72650;SHT31;61467;50.674;4.618;2023-12-14T02:00:30;9.62;85.41
72650;SHT31;61467;50.674;4.618;2023-12-14T02:03:01;9.32;85.97
72650;SHT31;61467;50.674;4.618;2023-12-14T02:05:28;9.41;86.02
72650;SHT31;61467;50.674;4.618;2023-12-14T02:07:56;9.42;85.67
72650;SHT31;61467;50.674;4.618;2023-12-14T02:10:24;9.59;85.30
72650;SHT31;61467;50.674;4.618;2023-12-14T02:12:50;9.59;85.04
72650;SHT31;61467;50.674;4.618;2023-12-14T02:15:17;9.61;85.11
72650;SHT31;61467;50.674;4.618;2023-12-14T02:17:44;9.76;84.97
72650;SHT31;61467;50.674;4.618;2023-12-14T02:20:10;9.73;84.69
72650;SHT31;61467;50.674;4.618;2023-12-14T02:22:49;9.78;84.45
72650;SHT31;61467;50.674;4.618;2023-12-14T02:25:16;9.68;84.75
72650;SHT31;61467;50.674;4.618;2023-12-14T02:27:43;9.66;84.63
72650;SHT31;61467;50.674;4.618;2023-12-14T02:30:11;9.59;85.09
72650;SHT31;61467;50.674;4.618;2023-12-14T02:32:38;9.73;84.42
72650;SHT31;61467;50.674;4.618;2023-12-14T02:35:06;9.78;84.50
72650;SHT31;61467;50.674;4.618;2023-12-14T02:37:34;9.72;84.61
72650;SHT31;61467;50.674;4.618;2023-12-14T02:40:04;9.66;84.36
72650;SHT31;61467;50.674;4.618;2023-12-14T02:42:32;9.71;84.36
72650;SHT31;61467;50.674;4.618;2023-12-14T02:44:59;9.82;84.20
72650;SHT31;61467;50.674;4.618;2023-12-14T02:47:27;9.69;84.04
72650;SHT31;61467;50.674;4.618;2023-12-14T02:49:54;9.71;84.40
72650;SHT31;61467;50.674;4.618;2023-12-14T02:52:21;9.81;83.91
72650;SHT31;61467;50.674;4.618;2023-12-14T02:54:48;9.76;84.19
72650;SHT31;61467;50.674;4.618;2023-12-14T02:57:16;9.90;84.02
72650;SHT31;61467;50.674;4.618;2023-12-14T02:59:43;9.75;83.54
72650;SHT31;61467;50.674;4.618;2023-12-14T03:02:10;9.81;83.69
72650;SHT31;61467;50.674;4.618;2023-12-14T03:04:38;9.54;84.08
72650;SHT31;61467;50.674;4.618;2023-12-14T03:07:05;9.52;83.94
72650;SHT31;61467;50.674;4.618;2023-12-14T03:09:32;9.21;84.94
72650;SHT31;61467;50.674;4.618;2023-12-14T03:11:59;9.38;84.84
72650;SHT31;61467;50.674;4.618;2023-12-14T03:14:32;9.25;84.67
72650;SHT31;61467;50.674;4.618;2023-12-14T03:16:59;9.00;84.32
72650;SHT31;61467;50.674;4.618;2023-12-14T03:19:26;9.17;84.35
72650;SHT31;61467;50.674;4.618;2023-12-14T03:21:53;8.99;84.32
72650;SHT31;61467;50.674;4.618;2023-12-14T03:24:20;9.01;84.17
72650;SHT31;61467;50.674;4.618;2023-12-14T03:26:47;9.20;83.82
72650;SHT31;61467;50.674;4.618;2023-12-14T03:29:13;8.99;84.07
72650;SHT31;61467;50.674;4.618;2023-12-14T03:31:41;8.99;84.20
72650;SHT31;61467;50.674;4.618;2023-12-14T03:34:08;8.88;83.98
72650;SHT31;61467;50.674;4.618;2023-12-14T03:36:35;8.96;83.92
72650;SHT31;61467;50.674;4.618;2023-12-14T03:39:02;8.91;83.69
72650;SHT31;61467;50.674;4.618;2023-12-14T03:41:28;8.96;83.89
72650;SHT31;61467;50.674;4.618;2023-12-14T03:43:55;8.93;84.24
72650;SHT31;61467;50.674;4.618;2023-12-14T03:46:22;8.94;83.76
72650;SHT31;61467;50.674;4.618;2023-12-14T03:48:51;9.01;83.76
72650;SHT31;61467;50.674;4.618;2023-12-14T03:51:18;9.05;83.78
72650;SHT31;61467;50.674;4.618;2023-12-14T03:53:45;8.70;83.76
72650;SHT31;61467;50.674;4.618;2023-12-14T03:56:12;8.80;84.53
72650;SHT31;61467;50.674;4.618;2023-12-14T03:58:39;8.76;84.44
72650;SHT31;61467;50.674;4.618;2023-12-14T04:01:06;8.63;84.52
72650;SHT31;61467;50.674;4.618;2023-12-14T04:03:33;8.45;84.82
72650;SHT31;61467;50.674;4.618;2023-12-14T04:06:06;8.53;84.43
72650;SHT31;61467;50.674;4.618;2023-12-14T04:08:33;8.52;83.97
72650;SHT31;61467;50.674;4.618;2023-12-14T04:11:00;8.46;84.56
72650;SHT31;61467;50.674;4.618;2023-12-14T04:13:27;8.45;83.92
72650;SHT31;61467;50.674;4.618;2023-12-14T04:15:54;8.16;84.78
72650;SHT31;61467;50.674;4.618;2023-12-14T04:18:21;8.38;84.76
72650;SHT31;61467;50.674;4.618;2023-12-14T04:20:48;8.52;84.38
72650;SHT31;61467;50.674;4.618;2023-12-14T04:23:16;8.63;84.31
72650;SHT31;61467;50.674;4.618;2023-12-14T04:25:43;8.56;84.36
72650;SHT31;61467;50.674;4.618;2023-12-14T04:28:10;8.49;84.57
72650;SHT31;61467;50.674;4.618;2023-12-14T04:30:37;8.57;84.10
72650;SHT31;61467;50.674;4.618;2023-12-14T04:33:04;8.35;83.81
72650;SHT31;61467;50.674;4.618;2023-12-14T04:35:30;8.35;83.75
72650;SHT31;61467;50.674;4.618;2023-12-14T04:38:01;8.48;83.60
72650;SHT31;61467;50.674;4.618;2023-12-14T04:40:30;8.52;83.20
72650;SHT31;61467;50.674;4.618;2023-12-14T04:42:56;8.56;82.84
72650;SHT31;61467;50.674;4.618;2023-12-14T04:45:23;8.57;82.59
72650;SHT31;61467;50.674;4.618;2023-12-14T04:47:50;8.57;82.62
72650;SHT31;61467;50.674;4.618;2023-12-14T04:50:17;8.41;82.89
72650;SHT31;61467;50.674;4.618;2023-12-14T04:52:44;8.32;83.18
72650;SHT31;61467;50.674;4.618;2023-12-14T04:55:10;8.32;83.27
72650;SHT31;61467;50.674;4.618;2023-12-14T04:57:40;8.53;82.81
72650;SHT31;61467;50.674;4.618;2023-12-14T05:00:08;8.45;82.94
72650;SHT31;61467;50.674;4.618;2023-12-14T05:02:35;8.45;83.43
72650;SHT31;61467;50.674;4.618;2023-12-14T05:05:02;8.59;82.98
72650;SHT31;61467;50.674;4.618;2023-12-14T05:07:29;8.52;82.62
72650;SHT31;61467;50.674;4.618;2023-12-14T05:09:55;8.26;82.90
72650;SHT31;61467;50.674;4.618;2023-12-14T05:12:22;8.31;83.37
72650;SHT31;61467;50.674;4.618;2023-12-14T05:14:52;8.15;83.59
72650;SHT31;61467;50.674;4.618;2023-12-14T05:17:19;8.18;83.50
72650;SHT31;61467;50.674;4.618;2023-12-14T05:19:46;8.26;83.53
72650;SHT31;61467;50.674;4.618;2023-12-14T05:22:12;8.38;83.15
72650;SHT31;61467;50.674;4.618;2023-12-14T05:24:39;8.22;83.14
72650;SHT31;61467;50.674;4.618;2023-12-14T05:27:06;8.06;83.51
72650;SHT31;61467;50.674;4.618;2023-12-14T05:29:33;7.95;83.43
72650;SHT31;61467;50.674;4.618;2023-12-14T05:32:01;7.73;84.73
72650;SHT31;61467;50.674;4.618;2023-12-14T05:34:28;7.46;84.48
72650;SHT31;61467;50.674;4.618;2023-12-14T05:36:55;7.57;84.58
72650;SHT31;61467;50.674;4.618;2023-12-14T05:39:22;7.67;84.23
72650;SHT31;61467;50.674;4.618;2023-12-14T05:41:49;7.32;84.28
72650;SHT31;61467;50.674;4.618;2023-12-14T05:44:16;7.43;84.37
72650;SHT31;61467;50.674;4.618;2023-12-14T05:46:44;7.53;84.73
72650;SHT31;61467;50.674;4.618;2023-12-14T05:49:12;7.64;83.81
72650;SHT31;61467;50.674;4.618;2023-12-14T05:51:39;7.97;83.24
72650;SHT31;61467;50.674;4.618;2023-12-14T05:54:06;7.63;82.98
72650;SHT31;61467;50.674;4.618;2023-12-14T05:56:33;8.26;85.62
72650;SHT31;61467;50.674;4.618;2023-12-14T05:58:59;8.90;85.68
72650;SHT31;61467;50.674;4.618;2023-12-14T06:01:26;9.24;81.17
72650;SHT31;61467;50.674;4.618;2023-12-14T06:03:54;9.58;79.32
72650;SHT31;61467;50.674;4.618;2023-12-14T06:06:22;9.25;77.30
72650;SHT31;61467;50.674;4.618;2023-12-14T06:08:50;9.04;78.00
72650;SHT31;61467;50.674;4.618;2023-12-14T06:11:17;8.86;78.27
72650;SHT31;61467;50.674;4.618;2023-12-14T06:13:45;8.70;78.71
72650;SHT31;61467;50.674;4.618;2023-12-14T06:16:12;8.20;79.89
72650;SHT31;61467;50.674;4.618;2023-12-14T06:18:39;7.98;80.85
72650;SHT31;61467;50.674;4.618;2023-12-14T06:21:08;8.02;80.45
72650;SHT31;61467;50.674;4.618;2023-12-14T06:23:40;7.83;81.10
72650;SHT31;61467;50.674;4.618;2023-12-14T06:26:07;8.11;80.93
72650;SHT31;61467;50.674;4.618;2023-12-14T06:28:33;8.15;80.93
72650;SHT31;61467;50.674;4.618;2023-12-14T06:31:00;8.09;80.85
72650;SHT31;61467;50.674;4.618;2023-12-14T06:33:27;7.84;80.62
72650;SHT31;61467;50.674;4.618;2023-12-14T06:35:54;7.80;80.85
72650;SHT31;61467;50.674;4.618;2023-12-14T06:38:23;7.67;81.56
72650;SHT31;61467;50.674;4.618;2023-12-14T06:40:53;7.50;82.06
72650;SHT31;61467;50.674;4.618;2023-12-14T06:43:20;7.56;82.04
72650;SHT31;61467;50.674;4.618;2023-12-14T06:45:46;7.43;82.11
72650;SHT31;61467;50.674;4.618;2023-12-14T06:48:13;7.27;82.31
72650;SHT31;61467;50.674;4.618;2023-12-14T06:50:40;7.05;83.24
72650;SHT31;61467;50.674;4.618;2023-12-14T06:53:07;7.05;83.95
72650;SHT31;61467;50.674;4.618;2023-12-14T06:55:34;7.22;83.70
72650;SHT31;61467;50.674;4.618;2023-12-14T06:58:03;7.22;82.93
72650;SHT31;61467;50.674;4.618;2023-12-14T07:00:34;7.19;82.70
72650;SHT31;61467;50.674;4.618;2023-12-14T07:03:02;7.08;82.91
72650;SHT31;61467;50.674;4.618;2023-12-14T07:05:29;7.15;83.08
72650;SHT31;61467;50.674;4.618;2023-12-14T07:07:57;7.42;82.30
72650;SHT31;61467;50.674;4.618;2023-12-14T07:10:24;7.63;81.43
72650;SHT31;61467;50.674;4.618;2023-12-14T07:12:51;7.64;81.19
72650;SHT31;61467;50.674;4.618;2023-12-14T07:15:20;7.62;81.05
72650;SHT31;61467;50.674;4.618;2023-12-14T07:17:46;7.53;81.32
72650;SHT31;61467;50.674;4.618;2023-12-14T07:20:14;7.34;81.96
72650;SHT31;61467;50.674;4.618;2023-12-14T07:22:41;7.33;82.14
72650;SHT31;61467;50.674;4.618;2023-12-14T07:25:08;7.47;81.81
72650;SHT31;61467;50.674;4.618;2023-12-14T07:27:35;7.64;81.04
72650;SHT31;61467;50.674;4.618;2023-12-14T07:30:02;7.75;80.67
72650;SHT31;61467;50.674;4.618;2023-12-14T07:32:30;7.75;80.52
72650;SHT31;61467;50.674;4.618;2023-12-14T07:34:57;7.59;80.90
72650;SHT31;61467;50.674;4.618;2023-12-14T07:37:24;7.25;81.00
72650;SHT31;61467;50.674;4.618;2023-12-14T07:39:51;7.63;81.34
72650;SHT31;61467;50.674;4.618;2023-12-14T07:42:19;7.53;81.05
72650;SHT31;61467;50.674;4.618;2023-12-14T07:44:46;7.49;81.26
72650;SHT31;61467;50.674;4.618;2023-12-14T07:47:13;7.39;81.15
72650;SHT31;61467;50.674;4.618;2023-12-14T07:49:44;7.62;80.75
72650;SHT31;61467;50.674;4.618;2023-12-14T07:52:12;7.56;80.98
72650;SHT31;61467;50.674;4.618;2023-12-14T07:54:40;7.64;81.06
72650;SHT31;61467;50.674;4.618;2023-12-14T07:57:07;7.66;80.45
72650;SHT31;61467;50.674;4.618;2023-12-14T07:59:34;7.57;80.29
72650;SHT31;61467;50.674;4.618;2023-12-14T08:02:01;7.54;80.31
72650;SHT31;61467;50.674;4.618;2023-12-14T08:04:28;7.46;80.39
72650;SHT31;61467;50.674;4.618;2023-12-14T08:06:56;7.64;81.75
72650;SHT31;61467;50.674;4.618;2023-12-14T08:09:25;7.66;79.88
72650;SHT31;61467;50.674;4.618;2023-12-14T08:11:52;7.70;79.79
72650;SHT31;61467;50.674;4.618;2023-12-14T08:14:19;7.60;80.05
72650;SHT31;61467;50.674;4.618;2023-12-14T08:16:46;7.54;80.12
72650;SHT31;61467;50.674;4.618;2023-12-14T08:19:13;7.37;80.36
72650;SHT31;61467;50.674;4.618;2023-12-14T08:21:40;7.33;81.05
72650;SHT31;61467;50.674;4.618;2023-12-14T08:24:08;7.33;80.58
72650;SHT31;61467;50.674;4.618;2023-12-14T08:26:35;7.34;80.65
72650;SHT31;61467;50.674;4.618;2023-12-14T08:29:02;7.43;80.48
72650;SHT31;61467;50.674;4.618;2023-12-14T08:31:31;7.63;79.64
72650;SHT31;61467;50.674;4.618;2023-12-14T08:33:58;7.63;79.41
72650;SHT31;61467;50.674;4.618;2023-12-14T08:36:24;7.77;79.48
72650;SHT31;61467;50.674;4.618;2023-12-14T08:38:51;7.67;79.28
72650;SHT31;61467;50.674;4.618;2023-12-14T08:41:20;7.75;78.99
72650;SHT31;61467;50.674;4.618;2023-12-14T08:43:47;7.84;78.47
72650;SHT31;61467;50.674;4.618;2023-12-14T08:46:13;7.78;78.56
72650;SHT31;61467;50.674;4.618;2023-12-14T08:48:40;7.77;78.42
72650;SHT31;61467;50.674;4.618;2023-12-14T08:51:07;7.84;78.41
72650;SHT31;61467;50.674;4.618;2023-12-14T08:53:36;7.87;78.64
72650;SHT31;61467;50.674;4.618;2023-12-14T08:56:04;7.87;78.19
72650;SHT31;61467;50.674;4.618;2023-12-14T08:58:33;7.88;78.31
72650;SHT31;61467;50.674;4.618;2023-12-14T09:01:00;7.88;78.25
72650;SHT31;61467;50.674;4.618;2023-12-14T09:03:28;7.98;78.60
72650;SHT31;61467;50.674;4.618;2023-12-14T09:05:55;8.11;78.69
72650;SHT31;61467;50.674;4.618;2023-12-14T09:08:24;8.09;78.68
72650;SHT31;61467;50.674;4.618;2023-12-14T09:10:50;8.04;78.30
72650;SHT31;61467;50.674;4.618;2023-12-14T09:13:17;8.11;78.36
72650;SHT31;61467;50.674;4.618;2023-12-14T09:15:46;7.83;78.63
72650;SHT31;61467;50.674;4.618;2023-12-14T09:18:13;7.98;78.61
72650;SHT31;61467;50.674;4.618;2023-12-14T09:20:39;8.26;78.31
72650;SHT31;61467;50.674;4.618;2023-12-14T09:23:08;8.24;78.12
72650;SHT31;61467;50.674;4.618;2023-12-14T09:25:35;8.20;77.80
72650;SHT31;61467;50.674;4.618;2023-12-14T09:28:02;8.28;77.77
72650;SHT31;61467;50.674;4.618;2023-12-14T09:30:29;8.39;77.33
72650;SHT31;61467;50.674;4.618;2023-12-14T09:32:57;7.90;77.66
72650;SHT31;61467;50.674;4.618;2023-12-14T09:35:26;8.01;77.84
72650;SHT31;61467;50.674;4.618;2023-12-14T09:37:53;8.28;77.92
72650;SHT31;61467;50.674;4.618;2023-12-14T09:40:22;8.21;77.93
72650;SHT31;61467;50.674;4.618;2023-12-14T09:42:49;7.78;77.94
72650;SHT31;61467;50.674;4.618;2023-12-14T09:45:17;7.78;78.21
72650;SHT31;61467;50.674;4.618;2023-12-14T09:47:46;7.80;78.34
72650;SHT31;61467;50.674;4.618;2023-12-14T09:50:14;8.09;76.88
72650;SHT31;61467;50.674;4.618;2023-12-14T09:52:42;7.98;77.65
72650;SHT31;61467;50.674;4.618;2023-12-14T09:55:10;7.83;76.88
72650;SHT31;61467;50.674;4.618;2023-12-14T09:57:37;8.05;77.20
72650;SHT31;61467;50.674;4.618;2023-12-14T10:00:05;8.20;77.52
72650;SHT31;61467;50.674;4.618;2023-12-14T10:02:36;8.35;77.38
72650;SHT31;61467;50.674;4.618;2023-12-14T10:05:06;8.41;77.26
72650;SHT31;61467;50.674;4.618;2023-12-14T10:07:40;8.36;74.92
72650;SHT31;61467;50.674;4.618;2023-12-14T10:10:12;8.29;75.98
72650;SHT31;61467;50.674;4.618;2023-12-14T10:12:51;8.42;76.86
72650;SHT31;61467;50.674;4.618;2023-12-14T10:15:21;8.41;76.82
72650;SHT31;61467;50.674;4.618;2023-12-14T10:17:51;8.63;76.53
72650;SHT31;61467;50.674;4.618;2023-12-14T10:20:19;8.56;76.95
72650;SHT31;61467;50.674;4.618;2023-12-14T10:22:53;8.65;76.16
72650;SHT31;61467;50.674;4.618;2023-12-14T10:25:22;8.35;76.40
72650;SHT31;61467;50.674;4.618;2023-12-14T10:27:51;8.32;76.97
72650;SHT31;61467;50.674;4.618;2023-12-14T10:30:19;8.60;76.97
72650;SHT31;61467;50.674;4.618;2023-12-14T10:32:47;8.57;77.22
72650;SHT31;61467;50.674;4.618;2023-12-14T10:35:16;8.73;77.46
72650;SHT31;61467;50.674;4.618;2023-12-14T10:37:46;8.74;77.22
72650;SHT31;61467;50.674;4.618;2023-12-14T10:40:17;8.77;76.86
72650;SHT31;61467;50.674;4.618;2023-12-14T10:42:45;8.73;76.77
72650;SHT31;61467;50.674;4.618;2023-12-14T10:45:13;8.55;76.90
72650;SHT31;61467;50.674;4.618;2023-12-14T10:47:43;8.49;77.02
72650;SHT31;61467;50.674;4.618;2023-12-14T10:50:11;8.48;77.27
72650;SHT31;61467;50.674;4.618;2023-12-14T10:52:38;8.45;77.16
72650;SHT31;61467;50.674;4.618;2023-12-14T10:55:08;8.63;77.09
72650;SHT31;61467;50.674;4.618;2023-12-14T10:57:39;8.70;76.56
72650;SHT31;61467;50.674;4.618;2023-12-14T11:00:07;8.74;76.46
72650;SHT31;61467;50.674;4.618;2023-12-14T11:02:40;8.83;76.68
72650;SHT31;61467;50.674;4.618;2023-12-14T11:05:12;8.76;77.00
72650;SHT31;61467;50.674;4.618;2023-12-14T11:07:50;8.96;76.30
72650;SHT31;61467;50.674;4.618;2023-12-14T11:10:21;8.72;76.02
72650;SHT31;61467;50.674;4.618;2023-12-14T11:12:55;8.91;76.45
72650;SHT31;61467;50.674;4.618;2023-12-14T11:15:22;8.65;76.34
72650;SHT31;61467;50.674;4.618;2023-12-14T11:21:02;8.42;76.00
72650;SHT31;61467;50.674;4.618;2023-12-14T11:23:31;8.34;76.09
72650;SHT31;61467;50.674;4.618;2023-12-14T11:25:59;8.39;76.28
72650;SHT31;61467;50.674;4.618;2023-12-14T11:28:30;7.85;77.16
72650;SHT31;61467;50.674;4.618;2023-12-14T11:30:57;8.12;77.55
72650;SHT31;61467;50.674;4.618;2023-12-14T11:33:24;8.55;77.63
72650;SHT31;61467;50.674;4.618;2023-12-14T11:35:52;8.60;76.54
72650;SHT31;61467;50.674;4.618;2023-12-14T11:38:21;8.52;75.65
72650;SHT31;61467;50.674;4.618;2023-12-14T11:40:49;8.25;76.20
72650;SHT31;61467;50.674;4.618;2023-12-14T11:43:17;8.57;75.90
72650;SHT31;61467;50.674;4.618;2023-12-14T11:45:47;8.32;76.07
72650;SHT31;61467;50.674;4.618;2023-12-14T11:48:15;8.35;75.59
72650;SHT31;61467;50.674;4.618;2023-12-14T11:50:42;8.09;76.15
72650;SHT31;61467;50.674;4.618;2023-12-14T11:53:10;8.22;75.96
72650;SHT31;61467;50.674;4.618;2023-12-14T11:55:39;8.20;76.02
72650;SHT31;61467;50.674;4.618;2023-12-14T11:58:06;8.34;75.49
72650;SHT31;61467;50.674;4.618;2023-12-14T12:00:34;8.36;75.95
72650;SHT31;61467;50.674;4.618;2023-12-14T12:03:15;8.56;75.41
72650;SHT31;61467;50.674;4.618;2023-12-14T12:05:43;8.42;75.52
72650;SHT31;61467;50.674;4.618;2023-12-14T12:08:11;8.36;76.06
72650;SHT31;61467;50.674;4.618;2023-12-14T12:10:41;8.63;76.23
72650;SHT31;61467;50.674;4.618;2023-12-14T12:13:12;8.74;75.54
72650;SHT31;61467;50.674;4.618;2023-12-14T12:15:39;8.48;75.34
72650;SHT31;61467;50.674;4.618;2023-12-14T12:18:07;8.65;75.34
72650;SHT31;61467;50.674;4.618;2023-12-14T12:20:35;8.29;76.07
72650;SHT31;61467;50.674;4.618;2023-12-14T12:23:03;8.25;76.44
72650;SHT31;61467;50.674;4.618;2023-12-14T12:25:30;8.42;76.54
72650;SHT31;61467;50.674;4.618;2023-12-14T12:27:57;8.63;76.22
72650;SHT31;61467;50.674;4.618;2023-12-14T12:30:25;8.57;76.56
72650;SHT31;61467;50.674;4.618;2023-12-14T12:32:53;8.65;75.97
72650;SHT31;61467;50.674;4.618;2023-12-14T12:35:21;8.31;76.49
72650;SHT31;61467;50.674;4.618;2023-12-14T12:37:50;8.59;76.44
72650;SHT31;61467;50.674;4.618;2023-12-14T12:40:19;8.14;76.92
72650;SHT31;61467;50.674;4.618;2023-12-14T12:42:51;8.41;77.09
72650;SHT31;61467;50.674;4.618;2023-12-14T12:45:18;8.55;76.47
72650;SHT31;61467;50.674;4.618;2023-12-14T12:47:47;8.70;76.49
72650;SHT31;61467;50.674;4.618;2023-12-14T12:50:14;8.81;76.36
72650;SHT31;61467;50.674;4.618;2023-12-14T12:52:41;8.79;76.07
72650;SHT31;61467;50.674;4.618;2023-12-14T12:55:10;8.53;76.74
72650;SHT31;61467;50.674;4.618;2023-12-14T12:57:37;8.66;77.28
72650;SHT31;61467;50.674;4.618;2023-12-14T13:00:06;8.67;77.24
72650;SHT31;61467;50.674;4.618;2023-12-14T13:02:36;8.66;77.76
72650;SHT31;61467;50.674;4.618;2023-12-14T13:05:04;8.74;77.63
72650;SHT31;61467;50.674;4.618;2023-12-14T13:07:31;8.88;77.37
72650;SHT31;61467;50.674;4.618;2023-12-14T13:09:58;8.67;77.86
72650;SHT31;61467;50.674;4.618;2023-12-14T13:12:27;9.23;77.30
72650;SHT31;61467;50.674;4.618;2023-12-14T13:14:53;9.14;76.77
72650;SHT31;61467;50.674;4.618;2023-12-14T13:17:20;9.05;77.15
72650;SHT31;61467;50.674;4.618;2023-12-14T13:19:48;9.04;77.15
72650;SHT31;61467;50.674;4.618;2023-12-14T13:22:15;8.83;77.87
72650;SHT31;61467;50.674;4.618;2023-12-14T13:24:42;8.65;78.02
72650;SHT31;61467;50.674;4.618;2023-12-14T13:27:09;8.74;78.37
72650;SHT31;61467;50.674;4.618;2023-12-14T13:29:37;8.69;78.92
72650;SHT31;61467;50.674;4.618;2023-12-14T13:32:06;8.76;78.68
72650;SHT31;61467;50.674;4.618;2023-12-14T13:34:33;8.80;78.58
72650;SHT31;61467;50.674;4.618;2023-12-14T13:37:00;8.91;78.47
72650;SHT31;61467;50.674;4.618;2023-12-14T13:39:27;8.62;78.73
72650;SHT31;61467;50.674;4.618;2023-12-14T13:41:54;8.70;78.64
72650;SHT31;61467;50.674;4.618;2023-12-14T13:44:21;8.72;78.72
72650;SHT31;61467;50.674;4.618;2023-12-14T13:46:49;9.00;78.00
72650;SHT31;61467;50.674;4.618;2023-12-14T13:49:18;8.79;78.57
72650;SHT31;61467;50.674;4.618;2023-12-14T13:51:45;8.76;78.67
72650;SHT31;61467;50.674;4.618;2023-12-14T13:54:12;8.74;78.89
72650;SHT31;61467;50.674;4.618;2023-12-14T13:56:39;8.76;78.56
72650;SHT31;61467;50.674;4.618;2023-12-14T13:59:06;8.79;78.68
72650;SHT31;61467;50.674;4.618;2023-12-14T14:01:33;8.73;78.92
72650;SHT31;61467;50.674;4.618;2023-12-14T14:04:01;8.74;78.74
72650;SHT31;61467;50.674;4.618;2023-12-14T14:06:29;8.86;78.77
72650;SHT31;61467;50.674;4.618;2023-12-14T14:08:56;8.80;79.03
72650;SHT31;61467;50.674;4.618;2023-12-14T14:11:23;8.72;78.80
72650;SHT31;61467;50.674;4.618;2023-12-14T14:13:50;8.74;78.91
72650;SHT31;61467;50.674;4.618;2023-12-14T14:16:18;8.76;78.85
72650;SHT31;61467;50.674;4.618;2023-12-14T14:18:46;8.79;79.01
72650;SHT31;61467;50.674;4.618;2023-12-14T14:21:14;8.80;79.17
72650;SHT31;61467;50.674;4.618;2023-12-14T14:23:41;8.97;79.06
72650;SHT31;61467;50.674;4.618;2023-12-14T14:26:08;9.03;78.44
72650;SHT31;61467;50.674;4.618;2023-12-14T14:28:34;9.17;78.15
72650;SHT31;61467;50.674;4.618;2023-12-14T14:31:01;8.84;78.70
72650;SHT31;61467;50.674;4.618;2023-12-14T14:33:28;8.87;78.77
72650;SHT31;61467;50.674;4.618;2023-12-14T14:35:55;9.05;78.67
72650;SHT31;61467;50.674;4.618;2023-12-14T14:38:24;9.01;78.40
72650;SHT31;61467;50.674;4.618;2023-12-14T14:40:51;9.03;78.58
72650;SHT31;61467;50.674;4.618;2023-12-14T14:43:18;9.01;78.44
72650;SHT31;61467;50.674;4.618;2023-12-14T14:45:45;8.74;79.01
72650;SHT31;61467;50.674;4.618;2023-12-14T14:48:11;9.04;78.32
72650;SHT31;61467;50.674;4.618;2023-12-14T14:50:38;8.90;78.17
72650;SHT31;61467;50.674;4.618;2023-12-14T14:53:05;8.88;78.18
72650;SHT31;61467;50.674;4.618;2023-12-14T14:55:33;8.94;78.65
72650;SHT31;61467;50.674;4.618;2023-12-14T14:58:00;9.07;78.05
72650;SHT31;61467;50.674;4.618;2023-12-14T15:00:28;9.10;77.82
72650;SHT31;61467;50.674;4.618;2023-12-14T15:02:55;9.04;78.27
72650;SHT31;61467;50.674;4.618;2023-12-14T15:05:22;8.94;78.05
72650;SHT31;61467;50.674;4.618;2023-12-14T15:07:49;8.94;77.96
72650;SHT31;61467;50.674;4.618;2023-12-14T15:10:15;8.96;77.84
72650;SHT31;61467;50.674;4.618;2023-12-14T15:12:44;9.11;77.48
72650;SHT31;61467;50.674;4.618;2023-12-14T15:15:11;9.08;77.85
72650;SHT31;61467;50.674;4.618;2023-12-14T15:17:38;9.07;77.78
72650;SHT31;61467;50.674;4.618;2023-12-14T15:20:05;9.11;77.45
72650;SHT31;61467;50.674;4.618;2023-12-14T15:22:32;9.01;77.65
72650;SHT31;61467;50.674;4.618;2023-12-14T15:24:59;9.14;77.74
72650;SHT31;61467;50.674;4.618;2023-12-14T15:27:26;9.17;77.64
72650;SHT31;61467;50.674;4.618;2023-12-14T15:29:54;9.20;77.45
72650;SHT31;61467;50.674;4.618;2023-12-14T15:32:21;9.13;77.68
72650;SHT31;61467;50.674;4.618;2023-12-14T15:34:48;9.04;77.82
72650;SHT31;61467;50.674;4.618;2023-12-14T15:37:15;9.10;77.81
72650;SHT31;61467;50.674;4.618;2023-12-14T15:39:42;9.04;78.15
72650;SHT31;61467;50.674;4.618;2023-12-14T15:42:13;9.10;78.03
72650;SHT31;61467;50.674;4.618;2023-12-14T15:44:40;9.10;78.03
72650;SHT31;61467;50.674;4.618;2023-12-14T15:47:09;8.97;78.24
72650;SHT31;61467;50.674;4.618;2023-12-14T15:49:36;9.01;78.00